Time;durP1;ratioP1;P1;durP2;ratioP2;P2;SDS_P1;SDS_P2;PMS_P1;PMS_P2;Temp;Humidity;BMP_temperature;BMP_pressure;BME280_temperature;BME280_humidity;BME280_pressure;Samples;Min_cycle;Max_cycle;Signal;HPM_P1;HPM_P2
2023/04/22 00:01:18;;;;;;;10.15;5.20;;;;;;;13.20;57.85;97711.97;4996849;28;20026;-76
2023/04/22 00:03:43;;;;;;;8.00;5.10;;;;;;;13.23;57.69;97714.16;5004004;28;20076;-77
2023/04/22 00:06:10;;;;;;;9.02;5.15;;;;;;;13.25;57.70;97709.28;5009991;28;20022;-77
2023/04/22 00:08:35;;;;;;;9.07;5.40;;;;;;;13.28;57.37;97707.94;5001781;28;20493;-77
2023/04/22 00:11:01;;;;;;;8.55;5.00;;;;;;;13.22;57.73;97707.09;5005394;28;20034;-77
2023/04/22 00:13:26;;;;;;;8.55;5.05;;;;;;;13.28;57.53;97700.59;4986719;28;20037;-76
2023/04/22 00:15:52;;;;;;;9.50;5.05;;;;;;;13.16;57.84;97702.81;4996191;28;20030;-75
2023/04/22 00:18:17;;;;;;;8.05;4.90;;;;;;;13.18;57.69;97706.84;4984557;28;20129;-75
2023/04/22 00:20:43;;;;;;;10.20;5.55;;;;;;;13.13;58.54;97700.63;5006220;28;20041;-74
2023/04/22 00:23:08;;;;;;;10.20;5.05;;;;;;;13.18;57.72;97700.63;5003996;28;20504;-75
2023/04/22 00:25:34;;;;;;;8.38;4.75;;;;;;;13.11;57.64;97690.09;4992310;28;20468;-75
2023/04/22 00:27:59;;;;;;;8.35;5.40;;;;;;;13.04;58.05;97694.94;5004512;28;20504;-74
2023/04/22 00:30:25;;;;;;;6.63;5.53;;;;;;;13.10;58.14;97703.88;5006635;28;20052;-76
2023/04/22 00:32:50;;;;;;;7.80;4.95;;;;;;;13.09;58.50;97700.34;4993202;28;20038;-75
2023/04/22 00:35:15;;;;;;;7.15;5.20;;;;;;;13.07;58.27;97699.00;4975336;28;20484;-76
2023/04/22 00:37:41;;;;;;;8.77;4.95;;;;;;;13.02;58.46;97707.13;4993089;28;20030;-75
2023/04/22 00:40:07;;;;;;;7.57;5.25;;;;;;;13.05;58.72;97711.97;4990097;28;20022;-76
2023/04/22 00:42:33;;;;;;;8.48;4.80;;;;;;;13.05;58.71;97712.81;5001205;28;20041;-76
2023/04/22 00:44:59;;;;;;;11.82;5.63;;;;;;;12.92;59.14;97710.63;4964384;28;20027;-76
2023/04/22 00:47:25;;;;;;;10.30;5.20;;;;;;;12.88;58.73;97711.44;4993649;28;20064;-76
2023/04/22 00:49:52;;;;;;;9.48;5.47;;;;;;;12.95;59.14;97714.69;4989424;28;20472;-76
2023/04/22 00:52:17;;;;;;;6.72;4.95;;;;;;;13.03;58.55;97714.13;4968883;28;20072;-76
2023/04/22 00:54:43;;;;;;;9.00;5.28;;;;;;;12.88;59.03;97711.44;4989283;28;20058;-75
2023/04/22 00:57:08;;;;;;;6.90;5.60;;;;;;;12.91;59.01;97716.28;4974542;28;20443;-76
2023/04/22 00:59:34;;;;;;;9.20;5.20;;;;;;;12.93;59.29;97720.34;4976441;28;20019;-76
2023/04/22 01:02:00;;;;;;;7.90;5.20;;;;;;;12.92;58.35;97717.94;4985719;28;20038;-76
2023/04/22 01:04:25;;;;;;;9.95;5.18;;;;;;;12.90;58.75;97717.38;4999516;28;20472;-76
2023/04/22 01:06:52;;;;;;;6.68;5.07;;;;;;;12.95;58.15;97709.28;4984760;28;20047;-75
2023/04/22 01:09:18;;;;;;;8.30;5.22;;;;;;;12.84;58.68;97707.63;5001792;28;20069;-76
2023/04/22 01:11:44;;;;;;;6.40;5.00;;;;;;;12.85;58.59;97710.09;4985132;28;20044;-75
2023/04/22 01:14:09;;;;;;;9.23;5.38;;;;;;;12.71;59.40;97710.91;4999182;28;20019;-76
2023/04/22 01:16:37;;;;;;;20.05;5.43;;;;;;;12.75;59.58;97707.38;4984705;28;20193;-75
2023/04/22 01:19:03;;;;;;;8.70;4.95;;;;;;;12.83;58.62;97714.16;5002010;28;20025;-76
2023/04/22 01:21:32;;;;;;;6.28;4.88;;;;;;;12.75;59.40;97709.25;4985170;28;20049;-76
2023/04/22 01:23:58;;;;;;;6.70;5.00;;;;;;;12.74;59.10;97704.97;4996373;28;20029;-76
2023/04/22 01:26:24;;;;;;;7.80;4.95;;;;;;;12.84;57.81;97707.63;5012634;28;20038;-75
2023/04/22 01:28:50;;;;;;;8.20;5.00;;;;;;;12.79;58.49;97707.66;4993673;28;20030;-76
2023/04/22 01:31:15;;;;;;;12.07;5.45;;;;;;;12.65;59.36;97706.59;4960630;28;20038;-75
2023/04/22 01:33:41;;;;;;;8.63;5.45;;;;;;;12.62;58.98;97704.41;4991413;28;20037;-76
2023/04/22 01:36:06;;;;;;;10.48;5.38;;;;;;;12.55;59.35;97707.38;5003423;28;20249;-76
2023/04/22 01:38:33;;;;;;;8.63;4.95;;;;;;;12.65;58.43;97711.97;4976928;28;20050;-76
2023/04/22 01:41:01;;;;;;;9.13;5.32;;;;;;;12.65;58.09;97701.19;4976514;28;20107;-76
2023/04/22 01:43:29;;;;;;;9.18;5.38;;;;;;;12.67;58.23;97709.81;4976188;28;20553;-75
2023/04/22 01:45:56;;;;;;;9.57;5.70;;;;;;;12.48;59.25;97702.22;4992993;28;20405;-75
2023/04/22 01:48:21;;;;;;;8.55;6.13;;;;;;;12.56;59.29;97702.75;4994737;28;20023;-74
2023/04/22 01:50:47;;;;;;;7.68;5.30;;;;;;;12.61;58.97;97700.06;5011522;28;20550;-75
2023/04/22 01:53:12;;;;;;;8.75;5.30;;;;;;;12.47;59.37;97706.00;5029288;23;20064;-75
2023/04/22 01:55:38;;;;;;;8.25;5.30;;;;;;;12.49;59.09;97703.84;5020267;28;20038;-74
2023/04/22 01:58:03;;;;;;;9.10;5.75;;;;;;;12.43;58.83;97704.94;5013888;28;20033;-74
2023/04/22 02:00:29;;;;;;;11.63;5.65;;;;;;;12.44;58.71;97701.13;5020730;28;20033;-75
2023/04/22 02:02:54;;;;;;;8.65;5.05;;;;;;;12.55;58.85;97703.88;5041330;28;20590;-75
2023/04/22 02:05:20;;;;;;;9.50;5.03;;;;;;;12.55;58.45;97701.16;5024073;28;20479;-75
2023/04/22 02:07:45;;;;;;;9.02;5.28;;;;;;;12.56;58.15;97708.16;5049551;28;20027;-76
2023/04/22 02:10:14;;;;;;;8.02;5.00;;;;;;;12.58;58.33;97706.03;5025155;28;20085;-75
2023/04/22 02:15:21;;;;;;;8.77;4.90;;;;;;;12.53;58.39;97714.13;2313028;26;20051;-74
2023/04/22 02:17:47;;;;;;;9.70;5.15;;;;;;;12.41;58.89;97714.38;5007904;28;20034;-73
2023/04/22 02:20:12;;;;;;;8.75;5.40;;;;;;;12.47;58.45;97716.00;4991535;28;20026;-73
2023/04/22 02:22:40;;;;;;;6.85;5.28;;;;;;;12.45;58.15;97716.28;4992508;28;20121;-74
2023/04/22 02:25:06;;;;;;;8.52;5.65;;;;;;;12.36;58.59;97719.78;4975212;28;20026;-74
2023/04/22 02:27:31;;;;;;;8.52;5.18;;;;;;;12.47;58.13;97722.22;4992602;28;20446;-75
2023/04/22 02:29:57;;;;;;;8.88;5.20;;;;;;;12.43;57.97;97715.75;4980144;28;20105;-74
2023/04/22 02:32:23;;;;;;;8.57;4.82;;;;;;;12.45;58.04;97724.38;4984814;28;20456;-74
2023/04/22 02:34:48;;;;;;;7.80;4.57;;;;;;;12.51;58.20;97710.88;4983956;28;20019;-74
2023/04/22 02:37:14;;;;;;;7.32;4.95;;;;;;;12.45;58.57;97729.78;4983830;28;20042;-76
2023/04/22 02:39:39;;;;;;;11.23;5.13;;;;;;;12.44;57.68;97727.31;4989933;28;20033;-75
2023/04/22 02:42:05;;;;;;;9.88;5.18;;;;;;;12.46;57.59;97731.38;4991168;28;20060;-76
2023/04/22 02:44:31;;;;;;;9.30;5.03;;;;;;;12.41;58.20;97723.31;4975042;28;20061;-75
2023/04/22 02:46:56;;;;;;;7.53;5.07;;;;;;;12.36;57.93;97725.16;4978187;28;20033;-75
2023/04/22 02:49:21;;;;;;;7.57;4.90;;;;;;;12.24;58.00;97727.31;4991322;28;20437;-75
2023/04/22 02:51:47;;;;;;;9.07;4.82;;;;;;;12.42;57.84;97735.72;4980941;28;20044;-75
2023/04/22 02:54:12;;;;;;;6.68;4.80;;;;;;;12.33;58.08;97741.91;4974662;28;20035;-74
2023/04/22 02:56:38;;;;;;;7.70;5.10;;;;;;;12.27;58.15;97727.59;4992216;28;20038;-74
2023/04/22 02:59:03;;;;;;;7.35;4.68;;;;;;;12.23;58.53;97731.88;4974906;28;20034;-75
2023/04/22 03:01:28;;;;;;;11.00;4.90;;;;;;;12.24;58.32;97730.81;4971676;28;20121;-75
2023/04/22 03:03:58;;;;;;;10.00;4.95;;;;;;;12.20;58.49;97732.44;5087408;23;20040;-76
2023/04/22 03:06:23;;;;;;;7.47;4.95;;;;;;;12.19;58.49;97725.41;5000787;28;20034;-73
2023/04/22 03:08:49;;;;;;;7.53;4.70;;;;;;;12.24;58.68;97722.72;5002930;28;20026;-74
2023/04/22 03:11:15;;;;;;;11.43;5.13;;;;;;;12.12;58.49;97727.53;5023827;28;20037;-74
2023/04/22 03:13:40;;;;;;;6.47;4.63;;;;;;;12.12;58.28;97724.03;5024376;28;20076;-74
2023/04/22 03:16:06;;;;;;;6.90;4.75;;;;;;;12.15;58.17;97724.31;5037292;28;20033;-74
2023/04/22 03:18:32;;;;;;;9.90;5.20;;;;;;;12.10;58.16;97716.19;5006707;28;20037;-75
2023/04/22 03:20:57;;;;;;;9.00;4.85;;;;;;;12.22;58.39;97724.88;5014178;28;20036;-75
2023/04/22 03:23:22;;;;;;;5.95;4.65;;;;;;;12.11;58.18;97717.81;5024924;28;20095;-74
2023/04/22 03:25:48;;;;;;;11.52;5.10;;;;;;;12.16;57.76;97722.44;5018786;28;20037;-74
2023/04/22 03:28:14;;;;;;;6.88;4.78;;;;;;;12.16;57.90;97720.53;5001735;28;20021;-75
2023/04/22 03:30:40;;;;;;;8.55;4.97;;;;;;;12.16;57.69;97719.75;5033927;28;20503;-75
2023/04/22 03:33:05;;;;;;;8.57;5.18;;;;;;;12.05;58.46;97718.88;5033734;28;20021;-75
2023/04/22 03:35:39;;;;;;;9.00;4.82;;;;;;;12.09;57.84;97713.78;5029538;28;20038;-75
2023/04/22 03:38:05;;;;;;;8.25;4.90;;;;;;;12.13;57.87;97720.25;5014442;28;20384;-76
2023/04/22 03:40:33;;;;;;;10.60;5.18;;;;;;;12.14;58.00;97722.69;5049312;28;20024;-76
2023/04/22 03:46:21;;;;;;;10.77;5.13;;;;;;;11.82;58.23;97684.25;1013549;26;20334;-75
2023/04/22 03:52:48;;;;;;;7.25;4.95;;;;;;;12.09;57.93;97719.19;5011350;28;20399;-74
2023/04/22 03:55:17;;;;;;;7.57;4.70;;;;;;;11.87;58.08;97696.97;5017756;28;20041;-74
2023/04/22 03:57:43;;;;;;;8.73;4.50;;;;;;;11.95;57.68;97712.66;5030577;28;20078;-74
2023/04/22 04:00:09;;;;;;;9.65;4.88;;;;;;;12.00;58.11;97712.63;5023630;28;20094;-75
2023/04/22 04:02:40;;;;;;;8.95;5.13;;;;;;;11.89;58.69;97719.09;5052592;28;20025;-73
2023/04/22 04:05:09;;;;;;;7.90;4.80;;;;;;;11.97;57.64;97710.50;5024960;28;20048;-73
2023/04/22 04:07:36;;;;;;;7.93;4.60;;;;;;;12.04;57.11;97706.44;5021261;28;20022;-74
2023/04/22 04:10:02;;;;;;;7.38;4.40;;;;;;;12.02;57.70;97719.41;5053145;28;20029;-76
2023/04/22 04:12:28;;;;;;;7.80;4.63;;;;;;;11.83;58.69;97720.16;5077317;22;20037;-76
2023/04/22 04:14:53;;;;;;;8.15;4.45;;;;;;;11.75;58.37;97718.75;5000467;28;20092;-74
2023/04/22 04:17:20;;;;;;;8.18;4.80;;;;;;;11.84;59.17;97721.75;5016781;28;20036;-74
2023/04/22 04:19:46;;;;;;;8.75;4.70;;;;;;;11.58;59.27;97718.09;4997027;28;20060;-75
2023/04/22 04:22:12;;;;;;;9.30;5.07;;;;;;;11.60;59.61;97711.38;4994145;28;20033;-74
2023/04/22 04:24:47;;;;;;;6.22;4.80;;;;;;;11.64;59.17;97722.47;5000697;28;20037;-74
2023/04/22 04:27:18;;;;;;;8.95;5.25;;;;;;;11.73;58.86;97720.91;5016391;28;20053;-75
2023/04/22 04:29:51;;;;;;;7.75;4.80;;;;;;;11.77;58.78;97711.22;5016446;28;20022;-75
2023/04/22 04:32:27;;;;;;;7.25;4.85;;;;;;;11.71;59.47;97717.69;5001161;28;20041;-74
2023/04/22 04:34:53;;;;;;;6.55;4.63;;;;;;;11.65;59.64;97721.38;5016015;28;20086;-74
2023/04/22 04:37:21;;;;;;;6.40;4.95;;;;;;;11.65;59.35;97724.06;5015825;28;20053;-74
2023/04/22 04:40:00;;;;;;;7.70;4.90;;;;;;;11.46;60.17;97720.22;4986029;28;20038;-75
2023/04/22 04:42:36;;;;;;;8.60;4.75;;;;;;;11.66;59.28;97714.91;5003955;28;20037;-74
2023/04/22 04:45:06;;;;;;;8.90;4.60;;;;;;;11.57;59.84;97722.72;5015630;28;20025;-75
2023/04/22 04:47:32;;;;;;;8.27;4.95;;;;;;;11.52;60.06;97724.56;5015728;28;20384;-74
2023/04/22 04:50:06;;;;;;;9.38;5.03;;;;;;;11.59;60.17;97731.34;5000325;28;20032;-75
2023/04/22 04:52:33;;;;;;;7.40;5.13;;;;;;;11.65;59.60;97730.28;4999587;28;20029;-74
2023/04/22 04:54:58;;;;;;;7.32;5.25;;;;;;;11.73;58.94;97726.31;5015451;28;20120;-73
2023/04/22 04:57:24;;;;;;;8.75;4.80;;;;;;;11.77;59.02;97728.22;4999341;28;20029;-74
2023/04/22 04:59:50;;;;;;;10.13;5.00;;;;;;;11.76;59.25;97731.97;4995876;28;20109;-74
2023/04/22 05:02:16;;;;;;;9.05;5.10;;;;;;;11.79;59.46;97736.84;4999096;28;20087;-73
2023/04/22 05:04:41;;;;;;;11.13;5.28;;;;;;;11.73;59.86;97729.00;5015339;28;20025;-73
2023/04/22 05:07:07;;;;;;;15.05;5.57;;;;;;;11.81;59.67;97727.69;5015530;28;20458;-74
2023/04/22 05:09:36;;;;;;;7.95;5.50;;;;;;;11.86;60.21;97731.22;4999364;28;20095;-74
2023/04/22 05:12:03;;;;;;;6.97;4.97;;;;;;;12.05;58.37;97728.84;4999962;28;20099;-75
2023/04/22 05:14:29;;;;;;;7.45;4.78;;;;;;;12.24;58.14;97727.31;5015229;28;20494;-75
2023/04/22 05:16:55;;;;;;;9.38;5.00;;;;;;;12.17;58.39;97730.25;4999367;28;20039;-76
2023/04/22 05:19:21;;;;;;;8.13;5.25;;;;;;;12.19;57.88;97736.19;4998998;28;20426;-75
2023/04/22 05:21:47;;;;;;;10.63;4.43;;;;;;;12.27;57.08;97733.00;5015184;28;20037;-75
2023/04/22 05:24:13;;;;;;;7.38;4.88;;;;;;;12.39;56.96;97736.22;5015158;28;20029;-75
2023/04/22 05:26:39;;;;;;;7.45;5.20;;;;;;;12.48;56.65;97740.03;5015102;28;20033;-75
2023/04/22 05:29:11;;;;;;;10.45;5.03;;;;;;;12.53;55.88;97743.84;4999659;28;20056;-75
2023/04/22 05:31:37;;;;;;;7.75;4.68;;;;;;;12.56;56.56;97746.81;5014776;28;20578;-75
2023/04/22 05:34:03;;;;;;;11.63;5.35;;;;;;;12.59;56.39;97745.47;4998359;28;20029;-75
2023/04/22 05:36:28;;;;;;;7.93;5.10;;;;;;;12.79;55.40;97745.50;4998394;28;20034;-75
2023/04/22 05:38:54;;;;;;;8.65;4.60;;;;;;;12.61;56.71;97751.41;4998631;28;20395;-76
2023/04/22 05:41:19;;;;;;;6.60;4.88;;;;;;;12.76;56.76;97751.44;5014862;28;20107;-76
2023/04/22 05:43:45;;;;;;;10.57;4.80;;;;;;;12.94;55.79;97749.00;4998383;28;20055;-75
2023/04/22 05:46:14;;;;;;;7.40;4.63;;;;;;;13.03;55.92;97749.28;4995635;28;20033;-75
2023/04/22 05:48:41;;;;;;;7.13;4.90;;;;;;;13.10;55.29;97747.13;5013364;28;20032;-75
2023/04/22 05:51:16;;;;;;;6.43;4.70;;;;;;;13.13;54.58;97746.59;4999591;28;20173;-75
2023/04/22 05:53:41;;;;;;;7.00;4.60;;;;;;;13.22;54.57;97750.38;4997957;28;20033;-75
2023/04/22 05:56:06;;;;;;;6.40;4.70;;;;;;;13.28;54.89;97749.28;5027836;28;20082;-75
2023/04/22 05:58:32;;;;;;;9.93;4.57;;;;;;;13.41;54.03;97748.72;4998208;28;20034;-75
2023/04/22 06:01:08;;;;;;;10.55;5.32;;;;;;;13.54;53.30;97745.44;4984533;28;20120;-75
2023/04/22 06:03:52;;;;;;;7.90;4.63;;;;;;;13.63;53.41;97745.69;5003149;28;20048;-75
2023/04/22 06:06:17;;;;;;;9.00;4.65;;;;;;;13.72;53.03;97744.84;5014342;28;20026;-75
2023/04/22 06:08:45;;;;;;;8.90;4.90;;;;;;;13.67;53.86;97738.66;4995031;28;20057;-75
2023/04/22 06:11:11;;;;;;;8.68;4.90;;;;;;;13.68;54.44;97740.25;5029832;28;20057;-74
2023/04/22 06:13:36;;;;;;;7.63;5.00;;;;;;;13.91;53.39;97749.69;4997545;28;20080;-74
2023/04/22 06:16:03;;;;;;;7.22;4.80;;;;;;;13.66;53.41;97748.66;4997819;28;20415;-75
2023/04/22 06:18:31;;;;;;;6.50;4.20;;;;;;;13.78;53.65;97754.59;4997710;28;20048;-75
2023/04/22 06:20:56;;;;;;;8.07;5.07;;;;;;;13.71;54.35;97754.06;4981876;28;20053;-75
2023/04/22 06:23:21;;;;;;;8.20;5.05;;;;;;;14.08;53.81;97755.56;4981585;28;20139;-75
2023/04/22 06:25:47;;;;;;;6.82;4.47;;;;;;;14.08;53.23;97758.25;4997563;28;20411;-75
2023/04/22 06:28:13;;;;;;;8.27;4.63;;;;;;;14.26;52.48;97760.38;5014234;28;20036;-75
2023/04/22 06:30:38;;;;;;;6.82;4.38;;;;;;;14.31;52.77;97757.63;4996651;28;20033;-75
2023/04/22 06:33:04;;;;;;;9.48;4.88;;;;;;;14.29;51.95;97755.19;4979699;28;20036;-75
2023/04/22 06:35:30;;;;;;;6.43;4.72;;;;;;;14.44;52.39;97748.91;5013082;28;20025;-75
2023/04/22 06:37:55;;;;;;;9.15;4.93;;;;;;;14.43;52.15;97747.28;5031658;28;20441;-75
2023/04/22 06:40:25;;;;;;;7.78;4.32;;;;;;;14.54;51.74;97754.25;4982499;28;20512;-75
2023/04/22 06:43:04;;;;;;;6.28;4.25;;;;;;;14.65;51.24;97745.00;4999205;28;20032;-75
2023/04/22 06:45:58;;;;;;;8.73;4.53;;;;;;;14.86;50.66;97741.03;5021604;28;20040;-75
2023/04/22 06:48:59;;;;;;;7.75;4.30;;;;;;;15.11;50.66;97746.25;5024803;28;20375;-75
2023/04/22 06:51:24;;;;;;;6.22;4.78;;;;;;;15.28;50.12;97747.75;5020710;28;20033;-75
2023/04/22 06:53:49;;;;;;;8.57;4.80;;;;;;;15.15;49.62;97755.44;5020170;28;20091;-75
2023/04/22 06:56:15;;;;;;;6.30;4.20;;;;;;;15.50;50.06;97748.09;5001987;28;20034;-75
2023/04/22 06:58:40;;;;;;;12.68;5.50;;;;;;;15.13;52.12;97749.50;5020382;28;20045;-75
2023/04/22 07:01:06;;;;;;;8.35;4.20;;;;;;;15.17;50.23;97745.13;5002040;28;20458;-75
2023/04/22 07:03:31;;;;;;;7.18;4.88;;;;;;;15.30;51.25;97742.84;5000368;28;20431;-75
2023/04/22 07:06:04;;;;;;;8.85;4.50;;;;;;;15.35;50.45;97748.22;5016032;28;20029;-75
2023/04/22 07:08:31;;;;;;;7.22;4.32;;;;;;;15.42;49.21;97745.97;5036724;28;20037;-75
2023/04/22 07:10:56;;;;;;;6.35;4.53;;;;;;;15.57;48.92;97748.56;5003867;28;20395;-75
2023/04/22 07:13:54;;;;;;;5.65;4.75;;;;;;;15.55;49.39;97750.75;5013675;28;20048;-75
2023/04/22 07:16:19;;;;;;;9.70;4.50;;;;;;;15.52;49.13;97735.84;5020251;28;20041;-75
2023/04/22 07:18:44;;;;;;;7.90;4.70;;;;;;;15.66;49.95;97747.66;5020220;28;20112;-75
2023/04/22 07:21:10;;;;;;;7.18;4.53;;;;;;;16.03;48.87;97741.53;5023946;28;20384;-75
2023/04/22 07:23:35;;;;;;;8.52;4.57;;;;;;;16.05;48.67;97739.34;5019904;28;20037;-75
2023/04/22 07:26:01;;;;;;;8.00;4.72;;;;;;;15.98;48.12;97735.34;5037857;28;20620;-75
2023/04/22 07:28:26;;;;;;;7.03;4.60;;;;;;;16.10;47.58;97731.13;5020109;28;20112;-76
2023/04/22 07:30:53;;;;;;;8.88;4.95;;;;;;;15.86;48.41;97730.34;5036567;28;20037;-75
2023/04/22 07:33:18;;;;;;;7.80;4.20;;;;;;;16.18;48.60;97732.38;5019814;28;20032;-75
2023/04/22 07:35:43;;;;;;;6.80;4.20;;;;;;;16.10;49.36;97730.31;5020032;28;20026;-75
2023/04/22 07:38:09;;;;;;;5.05;4.00;;;;;;;16.00;48.50;97728.53;5003704;28;20441;-76
2023/04/22 07:40:34;;;;;;;7.68;4.60;;;;;;;16.05;48.38;97724.94;5019861;28;20040;-75
2023/04/22 07:43:00;;;;;;;6.95;4.85;;;;;;;16.09;49.87;97728.69;5003379;28;20467;-75
2023/04/22 07:45:25;;;;;;;8.25;4.15;;;;;;;15.41;48.60;97738.94;5020117;28;20033;-75
2023/04/22 07:47:50;;;;;;;8.02;4.55;;;;;;;15.99;47.73;97729.63;5020044;28;20464;-72
2023/04/22 07:50:16;;;;;;;7.68;4.47;;;;;;;16.02;47.54;97739.91;5019934;28;20044;-75
2023/04/22 07:52:41;;;;;;;4.60;4.13;;;;;;;16.31;47.11;97735.19;5003260;28;20030;-75
2023/04/22 07:55:07;;;;;;;6.28;4.15;;;;;;;16.56;46.46;97740.31;5038670;28;20033;-76
2023/04/22 07:57:37;;;;;;;5.35;4.05;;;;;;;16.62;45.70;97737.53;5019677;28;20026;-76
2023/04/22 08:00:04;;;;;;;9.52;4.50;;;;;;;16.10;47.38;97741.19;5001025;28;20042;-76
2023/04/22 08:02:37;;;;;;;7.60;4.60;;;;;;;16.50;47.13;97740.63;5017847;28;20483;-76
2023/04/22 08:05:02;;;;;;;7.85;4.75;;;;;;;16.49;47.62;97733.59;5016556;28;20042;-75
2023/04/22 08:07:28;;;;;;;5.40;4.90;;;;;;;16.40;49.70;97730.72;5016641;28;20108;-75
2023/04/22 08:09:55;;;;;;;6.50;4.40;;;;;;;16.72;47.49;97731.91;5016707;28;20040;-75
2023/04/22 08:12:21;;;;;;;6.25;4.78;;;;;;;16.54;50.29;97731.66;5000358;28;20475;-75
2023/04/22 08:14:46;;;;;;;8.52;4.30;;;;;;;16.68;48.08;97731.72;5016282;28;20049;-75
2023/04/22 08:17:11;;;;;;;8.48;4.50;;;;;;;17.02;47.09;97731.44;5016334;28;20025;-75
2023/04/22 08:19:37;;;;;;;4.85;4.00;;;;;;;16.55;46.92;97732.44;5032785;28;20399;-76
2023/04/22 08:22:02;;;;;;;6.47;4.72;;;;;;;16.82;47.69;97720.91;4999942;28;20033;-76
2023/04/22 08:24:27;;;;;;;6.85;4.45;;;;;;;17.19;46.75;97720.81;5015820;28;20526;-75
2023/04/22 08:26:53;;;;;;;6.47;4.20;;;;;;;17.05;47.50;97719.97;5016035;28;20068;-76
2023/04/22 08:29:18;;;;;;;8.32;4.70;;;;;;;17.11;46.63;97719.59;4999859;28;20048;-75
2023/04/22 08:31:44;;;;;;;7.28;4.63;;;;;;;17.31;47.63;97718.44;4999684;28;20033;-75
2023/04/22 08:34:09;;;;;;;7.25;4.18;;;;;;;17.29;47.05;97720.66;5032305;28;20482;-75
2023/04/22 08:36:34;;;;;;;9.25;4.43;;;;;;;17.39;47.08;97728.63;5033723;28;20030;-76
2023/04/22 08:39:00;;;;;;;8.18;4.88;;;;;;;17.59;48.24;97720.13;4999563;28;20041;-76
2023/04/22 08:41:25;;;;;;;6.65;4.60;;;;;;;17.66;47.17;97709.66;4999525;28;20061;-75
2023/04/22 08:43:54;;;;;;;8.80;4.80;;;;;;;17.72;47.51;97708.44;5033222;28;20041;-75
2023/04/22 08:46:20;;;;;;;6.95;4.68;;;;;;;17.66;49.24;97720.53;5015946;28;20025;-76
2023/04/22 08:48:50;;;;;;;6.93;4.50;;;;;;;17.79;48.88;97714.28;5015885;28;20048;-76
2023/04/22 08:51:16;;;;;;;9.00;4.50;;;;;;;18.15;47.00;97710.84;4999444;28;20021;-75
2023/04/22 08:53:45;;;;;;;7.03;4.57;;;;;;;18.27;48.03;97724.75;4998924;28;20033;-75
2023/04/22 08:56:12;;;;;;;8.65;4.97;;;;;;;18.13;46.10;97719.34;4995844;28;20108;-76
2023/04/22 08:58:41;;;;;;;9.63;4.60;;;;;;;18.18;47.91;97704.78;5015717;28;20041;-76
2023/04/22 09:01:07;;;;;;;7.18;4.10;;;;;;;18.04;46.83;97704.00;4999032;28;20031;-76
2023/04/22 09:03:34;;;;;;;7.03;4.45;;;;;;;18.34;48.07;97697.91;5033201;28;20427;-76
2023/04/22 09:06:02;;;;;;;6.38;4.22;;;;;;;18.48;45.09;97698.69;5032078;28;20021;-76
2023/04/22 09:08:27;;;;;;;7.68;4.53;;;;;;;18.38;45.50;97687.97;5033191;28;20120;-75
2023/04/22 09:10:53;;;;;;;6.28;4.32;;;;;;;18.30;45.93;97696.88;5014846;28;20364;-75
2023/04/22 09:13:20;;;;;;;7.35;4.55;;;;;;;18.34;46.64;97687.00;5014921;28;20029;-75
2023/04/22 09:15:45;;;;;;;6.93;4.70;;;;;;;18.85;45.06;97682.00;4999000;28;20024;-76
2023/04/22 09:18:10;;;;;;;8.88;4.35;;;;;;;18.92;45.60;97682.38;4998886;28;20128;-75
2023/04/22 09:20:36;;;;;;;6.75;4.35;;;;;;;19.14;44.44;97685.06;4998597;28;20069;-76
2023/04/22 09:23:03;;;;;;;6.30;4.47;;;;;;;19.14;43.89;97679.59;4998545;28;20077;-76
2023/04/22 09:25:29;;;;;;;7.22;4.60;;;;;;;19.00;45.08;97672.59;5032764;28;20518;-75
2023/04/22 09:27:56;;;;;;;9.52;3.92;;;;;;;19.46;44.68;97666.81;5015102;28;20057;-76
2023/04/22 09:30:24;;;;;;;8.02;4.30;;;;;;;19.55;43.77;97673.13;4998769;28;20467;-76
2023/04/22 09:32:54;;;;;;;7.95;4.38;;;;;;;19.63;45.16;97675.06;4998743;28;20135;-76
2023/04/22 09:35:33;;;;;;;6.38;4.28;;;;;;;19.79;42.04;97657.91;5014845;28;20119;-76
2023/04/22 09:38:00;;;;;;;5.07;3.67;;;;;;;19.63;42.94;97658.66;5015110;28;20045;-76
2023/04/22 09:40:27;;;;;;;6.78;4.07;;;;;;;19.65;41.55;97656.44;5014841;28;20498;-75
2023/04/22 09:42:54;;;;;;;5.03;3.95;;;;;;;20.06;40.32;97654.16;5032356;28;20377;-76
2023/04/22 09:45:27;;;;;;;5.82;3.70;;;;;;;19.98;43.74;97660.38;5032465;28;20025;-76
2023/04/22 09:47:54;;;;;;;4.07;3.67;;;;;;;20.20;42.12;97652.09;4998330;28;20037;-75
2023/04/22 09:50:20;;;;;;;4.75;3.75;;;;;;;20.34;41.57;97651.97;4987804;28;20021;-76
2023/04/22 09:52:54;;;;;;;9.15;4.18;;;;;;;20.24;41.48;97641.31;5031071;28;20487;-76
2023/04/22 09:55:21;;;;;;;5.82;3.70;;;;;;;20.66;40.80;97644.09;5010184;28;20479;-76
2023/04/22 09:57:46;;;;;;;4.60;3.35;;;;;;;20.62;40.58;97643.13;5003564;28;20021;-75
2023/04/22 10:00:13;;;;;;;7.70;3.80;;;;;;;20.58;39.27;97653.09;4996274;28;20503;-75
2023/04/22 10:02:39;;;;;;;6.55;3.60;;;;;;;20.65;38.96;97642.47;5013771;28;20105;-75
2023/04/22 10:05:04;;;;;;;5.78;3.65;;;;;;;20.98;40.69;97644.72;4997434;28;20500;-75
2023/04/22 10:07:31;;;;;;;4.00;3.00;;;;;;;21.25;38.17;97645.16;4997454;28;20032;-75
2023/04/22 10:09:56;;;;;;;6.32;3.70;;;;;;;21.21;39.77;97637.91;4982095;28;20040;-76
2023/04/22 10:12:21;;;;;;;7.30;3.70;;;;;;;21.05;40.86;97639.56;4992052;28;20025;-76
2023/04/22 10:14:47;;;;;;;5.10;3.70;;;;;;;20.80;39.38;97635.69;4997723;28;20069;-75
2023/04/22 10:17:12;;;;;;;9.27;5.13;;;;;;;21.44;37.75;97633.00;4997848;28;20037;-76
2023/04/22 10:19:38;;;;;;;8.55;4.22;;;;;;;21.21;37.69;97643.41;4994414;28;20037;-76
2023/04/22 10:22:04;;;;;;;7.22;4.60;;;;;;;21.23;36.76;97636.47;4991026;28;20120;-76
2023/04/22 10:24:34;;;;;;;6.45;3.20;;;;;;;21.10;36.80;97636.63;4994337;28;20037;-76
2023/04/22 10:27:05;;;;;;;6.28;3.70;;;;;;;21.20;34.86;97641.78;4979252;28;20072;-76
2023/04/22 10:29:39;;;;;;;6.93;3.85;;;;;;;21.36;36.09;97634.63;5014080;28;20499;-76
2023/04/22 10:32:23;;;;;;;7.40;4.65;;;;;;;21.28;35.57;97625.31;4997838;28;20041;-76
2023/04/22 10:34:49;;;;;;;4.50;3.83;;;;;;;21.64;37.16;97624.84;5014200;28;20475;-76
2023/04/22 10:37:18;;;;;;;3.65;3.25;;;;;;;21.77;36.46;97634.00;4997814;28;20076;-76
2023/04/22 10:40:11;;;;;;;5.43;3.47;;;;;;;22.00;36.98;97627.91;4997496;28;20047;-76
2023/04/22 10:42:40;;;;;;;4.13;2.90;;;;;;;21.69;35.92;97627.41;4997590;28;20045;-76
2023/04/22 10:45:06;;;;;;;7.28;3.33;;;;;;;21.73;36.38;97622.88;5013903;28;20501;-76
2023/04/22 10:47:36;;;;;;;5.13;3.17;;;;;;;21.83;36.08;97625.25;5013900;28;20116;-76
2023/04/22 10:50:22;;;;;;;7.45;3.30;;;;;;;21.85;35.96;97623.00;4997713;28;20125;-76
2023/04/22 10:52:50;;;;;;;3.50;3.20;;;;;;;21.71;35.68;97613.34;4986984;28;20542;-76
2023/04/22 10:55:16;;;;;;;5.53;2.90;;;;;;;21.78;36.11;97613.66;5013499;28;20025;-76
2023/04/22 10:57:43;;;;;;;5.20;3.00;;;;;;;21.91;37.87;97615.41;5013928;28;20033;-76
2023/04/22 11:00:38;;;;;;;4.28;2.65;;;;;;;21.86;34.73;97599.94;4997442;28;20022;-76
2023/04/22 11:03:11;;;;;;;3.42;3.00;;;;;;;22.00;36.15;97595.00;4997143;28;20040;-76
2023/04/22 11:05:37;;;;;;;4.03;3.03;;;;;;;21.17;38.12;97598.59;4994190;28;20712;-76
2023/04/22 11:08:10;;;;;;;7.22;3.40;;;;;;;21.79;37.43;97594.16;4996383;28;20017;-76
2023/04/22 11:10:40;;;;;;;5.57;3.10;;;;;;;22.02;36.25;97592.72;4997456;28;20037;-76
2023/04/22 11:13:20;;;;;;;5.75;2.90;;;;;;;22.01;34.81;97590.31;4984085;28;20025;-76
2023/04/22 11:15:47;;;;;;;4.95;3.00;;;;;;;21.76;36.71;97589.31;4997300;28;20094;-76
2023/04/22 11:18:16;;;;;;;5.38;3.10;;;;;;;22.40;37.04;97586.31;5013849;28;20116;-76
2023/04/22 11:20:41;;;;;;;3.85;2.90;;;;;;;22.14;36.64;97577.47;5013446;28;20545;-76
2023/04/22 11:23:07;;;;;;;3.58;2.85;;;;;;;22.13;36.93;97586.84;5013061;28;20029;-76
2023/04/22 11:25:32;;;;;;;4.95;2.90;;;;;;;22.12;37.55;97586.06;4997487;28;20045;-76
2023/04/22 11:27:58;;;;;;;5.07;3.05;;;;;;;22.18;36.05;97573.72;5013599;28;20060;-76
2023/04/22 11:30:25;;;;;;;3.35;2.60;;;;;;;21.94;35.50;97579.88;5013636;28;20030;-76
2023/04/22 11:32:52;;;;;;;3.15;2.30;;;;;;;22.18;36.10;97575.66;5013531;28;20029;-76
2023/04/22 11:35:32;;;;;;;6.22;2.85;;;;;;;21.86;36.24;97575.25;5003165;28;20029;-76
2023/04/22 11:38:00;;;;;;;5.15;2.50;;;;;;;21.85;35.74;97576.38;5000909;28;20037;-76
2023/04/22 11:40:34;;;;;;;2.50;2.30;;;;;;;21.44;37.62;97581.75;5033545;28;20041;-76
2023/04/22 11:43:02;;;;;;;4.57;2.70;;;;;;;21.69;36.98;97575.31;5016920;28;20483;-76